Buffalo, NY

19:14 EST le 01 février 2015 (GMT -0500)
Delaware West Ferry | Change Station
CLOSE
Current Station
Stations météorologiques personnelles
Location: Buffalo, NY
Altitude: 669 ft
Stations météo à proximité
Avis météorologiques actifs: Winter Storm Warning

Alt. 669 ft 42.92 °N, 78.87 °W | Updated 24 seconds ago

Neige
Neige
14.7 ° F
Paraît 4 ° F
N
8.1
Vent Variable Vent de ENE
Gusts 13.0 mph

Aujourd'hui
Haut(e) -- | Bas -- ° F
--% Risque de précip.
Hier
Haut(e) -- | Bas -- ° F
Precip. -- pouce
7:30 AM 5:28 PM
Lune gibbeuse croissante, 96% visible
Pression 30.03 pouce
Visibilité 1.8 Miles terrestres
Nuages Couvert 2800 ft
Refroidissement éolien 4 ° F
Point de rosée 12 ° F
Humidité 88%
Précipitations 0.00 pouce
Profondeur de la couche neigeuse Non disponible.
UV 0.0 sur 12
Pollen .10 sur 12
Qualité de l'air Non disponible.
Flu Activity Non disponible.
METAR KBUF 012354Z 06018KT 1 3/4SM -SN BLSN OVC028 M10/M13 A2999 RMK AO2 SLP167 4/007 P0001 60005 T11001128 11067 21100 56027

More Conditions Fewer Conditions

Pression 30.03 pouce
Visibilité 1.8 Miles terrestres
Nuages Couvert 2800 ft
Refroidissement éolien 4 ° F
Point de rosée 12 ° F
Humidité 88%
Précipitations 0.00 pouce
Profondeur de la couche neigeuse Non disponible.
UV 0.0 sur 12
Pollen .10 sur 12
Qualité de l'air Non disponible.
Flu Activity Non disponible.
METAR KBUF 012354Z 06018KT 1 3/4SM -SN BLSN OVC028 M10/M13 A2999 RMK AO2 SLP167 4/007 P0001 60005 T11001128 11067 21100 56027

More Conditions Fewer Conditions

10-Day Weather Forecast

Almanac

Astronomie

Feb. 01, 2015 Lever Coucher
Temps réel
Crépuscule civil
Crépuscule nautique
Crépuscule astronomique
Lune
Durée de lumière visible
Longueur du jour
Tomorrow will be .
, % of the Moon is Illuminated

Extrêmes aujourd'hui

State Highs State Lows

Community

WunderPhotos

Upload Photos

1,792,619 Photos téléchargées !

WunderBlogs® & News

Nearby

Qualité de l'air

  Qualité de l'air Indice de la qualité de l'air Polluant
Not available.

Épaisseur de neige

Station Depth Altitude

Activité sismique

Ville Distance Mag. Time & Date
Minimum magnitude displayed is 2.5.

Températures des eaux côtières

Lieu Température

Stations météo à proximité